Terminal Aerodrome Forecast
Issued by NWS

Home | Current Version | Previous Version | Text Only | Print | Product List | Glossary On
Versions: 1 2 3 4 5 6 7 8 9 10 11 12 13
000
FTUS46 KLOX 160527
TAFPMD
TAF
KPMD 160527Z 1606/1706 24015G23KT P6SM BKN040 BKN250
     FM160900 25010KT P6SM BKN250
     FM161500 30007KT P6SM BKN250
     FM162000 03015KT P6SM SCT250
     FM170300 04008KT P6SM SCT250=

USA.gov is the U.S. government's official web portal to all federal, state and local government web resources and services.